sensor_id;sensor_type;location;lat;lon;timestamp;temperature;humidity
72772;SHT30;60894;42.544;1.516;2024-01-15T10:10:39;20.44;50.26
72772;SHT30;60894;42.544;1.516;2024-01-15T10:13:07;20.44;50.17
72772;SHT30;60894;42.544;1.516;2024-01-15T10:15:34;20.41;49.26
72772;SHT30;60894;42.544;1.516;2024-01-15T10:18:03;20.42;48.82
72772;SHT30;60894;42.544;1.516;2024-01-15T10:20:32;20.40;49.28
72772;SHT30;60894;42.544;1.516;2024-01-15T11:01:39;20.79;49.13
72772;SHT30;60894;42.544;1.516;2024-01-15T11:04:07;20.81;49.25
72772;SHT30;60894;42.544;1.516;2024-01-15T11:06:42;20.76;47.80
72772;SHT30;60894;42.544;1.516;2024-01-15T11:09:09;20.78;47.61
72772;SHT30;60894;42.544;1.516;2024-01-15T11:11:40;20.85;48.00
72772;SHT30;60894;42.544;1.516;2024-01-15T11:14:08;20.85;47.47
72772;SHT30;60894;42.544;1.516;2024-01-15T11:16:56;20.89;47.36
72772;SHT30;60894;42.544;1.516;2024-01-15T11:19:25;20.91;47.15
72772;SHT30;60894;42.544;1.516;2024-01-15T11:21:52;20.89;48.13
72772;SHT30;60894;42.544;1.516;2024-01-15T11:24:34;20.89;47.44
72772;SHT30;60894;42.544;1.516;2024-01-15T11:27:02;20.88;46.71
72772;SHT30;60894;42.544;1.516;2024-01-15T11:29:30;20.89;45.88
72772;SHT30;60894;42.544;1.516;2024-01-15T11:32:00;20.91;45.61
72772;SHT30;60894;42.544;1.516;2024-01-15T11:34:52;20.85;44.86
72772;SHT30;60894;42.544;1.516;2024-01-15T11:37:20;20.86;44.50
72772;SHT30;60894;42.544;1.516;2024-01-15T11:39:51;20.83;44.62
72772;SHT30;60894;42.544;1.516;2024-01-15T11:42:19;20.88;44.09
72772;SHT30;60894;42.544;1.516;2024-01-15T11:44:47;20.92;43.72
72772;SHT30;60894;42.544;1.516;2024-01-15T11:47:15;20.92;43.77
72772;SHT30;60894;42.544;1.516;2024-01-15T11:49:59;20.95;43.49
72772;SHT30;60894;42.544;1.516;2024-01-15T11:52:31;20.98;43.59
72772;SHT30;60894;42.544;1.516;2024-01-15T11:55:02;20.99;43.64
72772;SHT30;60894;42.544;1.516;2024-01-15T11:57:40;21.04;42.27
72772;SHT30;60894;42.544;1.516;2024-01-15T12:00:09;21.12;42.66
72772;SHT30;60894;42.544;1.516;2024-01-15T12:02:43;21.14;41.50
72772;SHT30;60894;42.544;1.516;2024-01-15T12:05:12;21.19;41.96
72772;SHT30;60894;42.544;1.516;2024-01-15T12:07:39;21.16;41.86
72772;SHT30;60894;42.544;1.516;2024-01-15T12:10:10;21.14;39.50
72772;SHT30;60894;42.544;1.516;2024-01-15T13:11:03;13.83;48.59
72772;SHT30;60894;42.544;1.516;2024-01-15T13:13:31;13.38;51.47
72772;SHT30;60894;42.544;1.516;2024-01-15T13:16:00;12.94;51.74
72772;SHT30;60894;42.544;1.516;2024-01-15T13:18:27;12.60;51.93
72772;SHT30;60894;42.544;1.516;2024-01-15T13:20:54;12.30;52.51
72772;SHT30;60894;42.544;1.516;2024-01-15T13:23:21;12.28;53.42
72772;SHT30;60894;42.544;1.516;2024-01-15T13:25:48;13.67;62.10
72772;SHT30;60894;42.544;1.516;2024-01-15T13:28:17;14.07;51.25
72772;SHT30;60894;42.544;1.516;2024-01-15T13:30:44;13.91;52.32
72772;SHT30;60894;42.544;1.516;2024-01-15T13:33:11;13.95;49.79
72772;SHT30;60894;42.544;1.516;2024-01-15T13:35:39;13.52;50.48
72772;SHT30;60894;42.544;1.516;2024-01-15T13:38:06;13.01;51.07
72772;SHT30;60894;42.544;1.516;2024-01-15T13:40:34;12.18;53.17
72772;SHT30;60894;42.544;1.516;2024-01-15T13:43:02;12.02;53.88
72772;SHT30;60894;42.544;1.516;2024-01-15T13:45:34;11.98;52.86
72772;SHT30;60894;42.544;1.516;2024-01-15T13:48:03;11.81;54.31
72772;SHT30;60894;42.544;1.516;2024-01-15T13:50:31;11.79;54.60
72772;SHT30;60894;42.544;1.516;2024-01-15T13:52:58;11.91;54.85
72772;SHT30;60894;42.544;1.516;2024-01-15T13:55:25;11.78;54.14
72772;SHT30;60894;42.544;1.516;2024-01-15T13:57:52;11.81;54.63
72772;SHT30;60894;42.544;1.516;2024-01-15T14:00:19;12.04;53.20
72772;SHT30;60894;42.544;1.516;2024-01-15T14:02:48;11.74;53.42
72772;SHT30;60894;42.544;1.516;2024-01-15T14:05:15;11.58;56.79
72772;SHT30;60894;42.544;1.516;2024-01-15T14:07:42;11.50;54.66
72772;SHT30;60894;42.544;1.516;2024-01-15T14:10:10;11.45;55.39
72772;SHT30;60894;42.544;1.516;2024-01-15T14:12:37;11.44;55.43
72772;SHT30;60894;42.544;1.516;2024-01-15T14:15:06;11.30;55.87
72772;SHT30;60894;42.544;1.516;2024-01-15T14:17:33;11.13;56.38
72772;SHT30;60894;42.544;1.516;2024-01-15T14:20:01;11.07;56.56
72772;SHT30;60894;42.544;1.516;2024-01-15T14:22:30;11.16;56.42
72772;SHT30;60894;42.544;1.516;2024-01-15T14:24:57;11.10;56.50
72772;SHT30;60894;42.544;1.516;2024-01-15T14:27:25;11.17;57.36
72772;SHT30;60894;42.544;1.516;2024-01-15T14:29:52;11.16;57.69
72772;SHT30;60894;42.544;1.516;2024-01-15T14:32:19;11.12;58.30
72772;SHT30;60894;42.544;1.516;2024-01-15T14:34:46;11.13;58.56
72772;SHT30;60894;42.544;1.516;2024-01-15T14:37:14;11.14;60.18
72772;SHT30;60894;42.544;1.516;2024-01-15T14:39:42;11.03;61.41
72772;SHT30;60894;42.544;1.516;2024-01-15T14:42:09;11.04;60.12
72772;SHT30;60894;42.544;1.516;2024-01-15T14:44:36;10.82;62.64
72772;SHT30;60894;42.544;1.516;2024-01-15T14:47:05;10.82;63.14
72772;SHT30;60894;42.544;1.516;2024-01-15T14:49:33;10.72;63.60
72772;SHT30;60894;42.544;1.516;2024-01-15T14:52:01;10.86;65.12
72772;SHT30;60894;42.544;1.516;2024-01-15T14:54:30;10.91;65.80
72772;SHT30;60894;42.544;1.516;2024-01-15T14:56:57;10.79;67.52
72772;SHT30;60894;42.544;1.516;2024-01-15T14:59:24;10.73;69.07
72772;SHT30;60894;42.544;1.516;2024-01-15T15:01:53;10.71;67.56
72772;SHT30;60894;42.544;1.516;2024-01-15T15:04:20;10.56;68.47
72772;SHT30;60894;42.544;1.516;2024-01-15T15:06:47;10.56;69.97
72772;SHT30;60894;42.544;1.516;2024-01-15T15:09:17;10.41;71.36
72772;SHT30;60894;42.544;1.516;2024-01-15T15:11:45;10.41;71.94
72772;SHT30;60894;42.544;1.516;2024-01-15T15:14:12;10.27;70.88
72772;SHT30;60894;42.544;1.516;2024-01-15T15:16:39;10.10;71.16
72772;SHT30;60894;42.544;1.516;2024-01-15T15:19:07;9.93;71.95
72772;SHT30;60894;42.544;1.516;2024-01-15T15:21:34;9.93;72.97
72772;SHT30;60894;42.544;1.516;2024-01-15T15:24:01;9.94;72.47
72772;SHT30;60894;42.544;1.516;2024-01-15T15:26:28;9.95;74.18
72772;SHT30;60894;42.544;1.516;2024-01-15T15:28:56;9.90;76.35
72772;SHT30;60894;42.544;1.516;2024-01-15T15:31:24;9.90;76.81
72772;SHT30;60894;42.544;1.516;2024-01-15T15:33:51;9.82;76.34
72772;SHT30;60894;42.544;1.516;2024-01-15T15:36:18;9.73;76.13
72772;SHT30;60894;42.544;1.516;2024-01-15T15:38:45;9.69;77.87
72772;SHT30;60894;42.544;1.516;2024-01-15T15:41:12;9.67;78.23
72772;SHT30;60894;42.544;1.516;2024-01-15T15:43:40;9.64;78.91
72772;SHT30;60894;42.544;1.516;2024-01-15T15:46:08;9.56;78.85
72772;SHT30;60894;42.544;1.516;2024-01-15T15:48:35;9.53;79.99
72772;SHT30;60894;42.544;1.516;2024-01-15T15:51:03;9.44;80.71
72772;SHT30;60894;42.544;1.516;2024-01-15T15:53:30;9.40;80.48
72772;SHT30;60894;42.544;1.516;2024-01-15T15:55:57;9.46;81.71
72772;SHT30;60894;42.544;1.516;2024-01-15T15:58:24;9.47;80.66
72772;SHT30;60894;42.544;1.516;2024-01-15T16:00:51;9.35;81.93
72772;SHT30;60894;42.544;1.516;2024-01-15T16:03:19;9.12;82.42
72772;SHT30;60894;42.544;1.516;2024-01-15T16:05:47;9.00;83.18
72772;SHT30;60894;42.544;1.516;2024-01-15T16:08:14;8.87;83.55
72772;SHT30;60894;42.544;1.516;2024-01-15T16:10:41;8.84;83.83
72772;SHT30;60894;42.544;1.516;2024-01-15T16:13:08;8.85;84.52
72772;SHT30;60894;42.544;1.516;2024-01-15T16:15:35;8.80;85.02
72772;SHT30;60894;42.544;1.516;2024-01-15T16:18:02;8.84;84.62
72772;SHT30;60894;42.544;1.516;2024-01-15T16:20:31;8.89;84.57
72772;SHT30;60894;42.544;1.516;2024-01-15T16:22:58;8.85;84.15
72772;SHT30;60894;42.544;1.516;2024-01-15T16:25:25;8.78;84.64
72772;SHT30;60894;42.544;1.516;2024-01-15T16:27:52;8.77;84.55
72772;SHT30;60894;42.544;1.516;2024-01-15T16:30:19;8.81;84.68
72772;SHT30;60894;42.544;1.516;2024-01-15T16:32:46;8.77;84.85
72772;SHT30;60894;42.544;1.516;2024-01-15T16:35:14;8.71;84.73
72772;SHT30;60894;42.544;1.516;2024-01-15T16:37:43;8.68;85.33
72772;SHT30;60894;42.544;1.516;2024-01-15T16:40:10;8.56;85.45
72772;SHT30;60894;42.544;1.516;2024-01-15T16:42:38;8.56;85.37
72772;SHT30;60894;42.544;1.516;2024-01-15T16:45:06;8.32;85.67
72772;SHT30;60894;42.544;1.516;2024-01-15T16:47:34;8.16;86.45
72772;SHT30;60894;42.544;1.516;2024-01-15T16:50:01;8.10;86.84
72772;SHT30;60894;42.544;1.516;2024-01-15T16:52:29;8.05;85.26
72772;SHT30;60894;42.544;1.516;2024-01-15T16:54:58;8.22;85.15
72772;SHT30;60894;42.544;1.516;2024-01-15T16:57:25;8.36;85.33
72772;SHT30;60894;42.544;1.516;2024-01-15T16:59:52;8.41;85.34
72772;SHT30;60894;42.544;1.516;2024-01-15T17:02:19;8.25;85.89
72772;SHT30;60894;42.544;1.516;2024-01-15T17:04:46;8.28;85.74
72772;SHT30;60894;42.544;1.516;2024-01-15T17:07:13;8.25;85.57
72772;SHT30;60894;42.544;1.516;2024-01-15T17:09:40;8.16;85.07
72772;SHT30;60894;42.544;1.516;2024-01-15T17:12:09;7.88;86.32
72772;SHT30;60894;42.544;1.516;2024-01-15T17:14:36;7.62;86.94
72772;SHT30;60894;42.544;1.516;2024-01-15T17:17:03;7.51;87.88
72772;SHT30;60894;42.544;1.516;2024-01-15T17:19:30;7.46;87.74
72772;SHT30;60894;42.544;1.516;2024-01-15T17:21:57;7.32;87.92
72772;SHT30;60894;42.544;1.516;2024-01-15T17:24:25;7.43;87.70
72772;SHT30;60894;42.544;1.516;2024-01-15T17:26:52;7.30;88.23
72772;SHT30;60894;42.544;1.516;2024-01-15T17:29:20;7.26;87.95
72772;SHT30;60894;42.544;1.516;2024-01-15T17:31:48;7.40;87.52
72772;SHT30;60894;42.544;1.516;2024-01-15T17:34:15;7.34;87.48
72772;SHT30;60894;42.544;1.516;2024-01-15T17:36:42;7.37;87.44
72772;SHT30;60894;42.544;1.516;2024-01-15T17:39:09;7.32;86.97
72772;SHT30;60894;42.544;1.516;2024-01-15T17:41:37;7.37;87.29
72772;SHT30;60894;42.544;1.516;2024-01-15T17:44:04;7.34;87.30
72772;SHT30;60894;42.544;1.516;2024-01-15T17:46:32;7.32;86.97
72772;SHT30;60894;42.544;1.516;2024-01-15T17:49:00;7.21;86.72
72772;SHT30;60894;42.544;1.516;2024-01-15T17:51:29;7.07;86.34
72772;SHT30;60894;42.544;1.516;2024-01-15T17:53:57;7.06;85.98
72772;SHT30;60894;42.544;1.516;2024-01-15T17:56:24;6.95;86.13
72772;SHT30;60894;42.544;1.516;2024-01-15T17:58:51;7.00;85.41
72772;SHT30;60894;42.544;1.516;2024-01-15T18:01:18;6.99;86.75
72772;SHT30;60894;42.544;1.516;2024-01-15T18:03:47;7.03;86.76
72772;SHT30;60894;42.544;1.516;2024-01-15T18:06:15;6.72;86.65
72772;SHT30;60894;42.544;1.516;2024-01-15T18:08:42;6.42;88.27
72772;SHT30;60894;42.544;1.516;2024-01-15T18:11:15;6.48;88.06
72772;SHT30;60894;42.544;1.516;2024-01-15T18:13:42;6.56;87.90
72772;SHT30;60894;42.544;1.516;2024-01-15T18:16:09;6.56;87.32
72772;SHT30;60894;42.544;1.516;2024-01-15T18:18:38;6.66;87.05
72772;SHT30;60894;42.544;1.516;2024-01-15T18:21:06;6.68;85.57
72772;SHT30;60894;42.544;1.516;2024-01-15T18:23:33;6.39;87.33
72772;SHT30;60894;42.544;1.516;2024-01-15T18:26:00;6.35;86.74
72772;SHT30;60894;42.544;1.516;2024-01-15T18:28:28;6.42;86.26
72772;SHT30;60894;42.544;1.516;2024-01-15T18:30:55;6.42;87.04
72772;SHT30;60894;42.544;1.516;2024-01-15T18:33:22;6.46;86.85
72772;SHT30;60894;42.544;1.516;2024-01-15T18:35:49;6.46;87.11
72772;SHT30;60894;42.544;1.516;2024-01-15T18:38:17;6.37;85.80
72772;SHT30;60894;42.544;1.516;2024-01-15T18:40:45;6.49;84.80
72772;SHT30;60894;42.544;1.516;2024-01-15T18:43:12;6.35;86.20
72772;SHT30;60894;42.544;1.516;2024-01-15T18:45:40;6.29;86.08
72772;SHT30;60894;42.544;1.516;2024-01-15T18:48:07;6.24;85.71
72772;SHT30;60894;42.544;1.516;2024-01-15T18:50:36;6.17;86.31
72772;SHT30;60894;42.544;1.516;2024-01-15T18:53:03;6.14;86.11
72772;SHT30;60894;42.544;1.516;2024-01-15T18:55:31;6.17;84.77
72772;SHT30;60894;42.544;1.516;2024-01-15T18:57:58;6.04;86.00
72772;SHT30;60894;42.544;1.516;2024-01-15T19:00:25;6.14;84.80
72772;SHT30;60894;42.544;1.516;2024-01-15T19:02:53;5.98;85.45
72772;SHT30;60894;42.544;1.516;2024-01-15T19:05:24;6.00;85.29
72772;SHT30;60894;42.544;1.516;2024-01-15T19:07:51;5.87;85.46
72772;SHT30;60894;42.544;1.516;2024-01-15T19:10:18;5.81;85.83
72772;SHT30;60894;42.544;1.516;2024-01-15T19:12:47;5.57;84.76
72772;SHT30;60894;42.544;1.516;2024-01-15T19:15:14;5.78;84.15
72772;SHT30;60894;42.544;1.516;2024-01-15T19:17:41;5.74;84.72
72772;SHT30;60894;42.544;1.516;2024-01-15T19:20:11;5.66;85.38
72772;SHT30;60894;42.544;1.516;2024-01-15T19:22:39;5.56;85.85
72772;SHT30;60894;42.544;1.516;2024-01-15T19:25:07;5.62;85.70
72772;SHT30;60894;42.544;1.516;2024-01-15T19:27:34;5.55;85.20
72772;SHT30;60894;42.544;1.516;2024-01-15T19:30:07;5.42;86.71
72772;SHT30;60894;42.544;1.516;2024-01-15T19:32:34;5.39;86.34
72772;SHT30;60894;42.544;1.516;2024-01-15T19:35:01;5.50;84.06
72772;SHT30;60894;42.544;1.516;2024-01-15T19:37:28;5.40;85.21
72772;SHT30;60894;42.544;1.516;2024-01-15T19:39:55;5.24;85.57
72772;SHT30;60894;42.544;1.516;2024-01-15T19:42:23;5.28;85.84
72772;SHT30;60894;42.544;1.516;2024-01-15T19:44:50;5.24;85.94
72772;SHT30;60894;42.544;1.516;2024-01-15T19:47:19;5.21;86.17
72772;SHT30;60894;42.544;1.516;2024-01-15T19:49:46;5.19;84.59
72772;SHT30;60894;42.544;1.516;2024-01-15T19:52:13;5.24;84.22
72772;SHT30;60894;42.544;1.516;2024-01-15T19:54:40;5.07;85.31
72772;SHT30;60894;42.544;1.516;2024-01-15T19:57:08;5.07;85.54
72772;SHT30;60894;42.544;1.516;2024-01-15T19:59:35;5.07;85.92
72772;SHT30;60894;42.544;1.516;2024-01-15T20:02:03;5.05;85.39
72772;SHT30;60894;42.544;1.516;2024-01-15T20:04:31;4.96;85.95
72772;SHT30;60894;42.544;1.516;2024-01-15T20:06:59;5.18;84.77
72772;SHT30;60894;42.544;1.516;2024-01-15T20:09:26;4.80;84.56
72772;SHT30;60894;42.544;1.516;2024-01-15T20:11:53;4.60;86.15
72772;SHT30;60894;42.544;1.516;2024-01-15T20:14:20;4.60;87.22
72772;SHT30;60894;42.544;1.516;2024-01-15T20:16:50;4.61;86.62
72772;SHT30;60894;42.544;1.516;2024-01-15T20:19:17;4.67;86.67
72772;SHT30;60894;42.544;1.516;2024-01-15T20:21:45;4.64;86.88
72772;SHT30;60894;42.544;1.516;2024-01-15T20:24:13;4.58;86.78
72772;SHT30;60894;42.544;1.516;2024-01-15T20:26:40;4.56;86.47
72772;SHT30;60894;42.544;1.516;2024-01-15T20:29:08;4.56;86.90
72772;SHT30;60894;42.544;1.516;2024-01-15T20:31:35;4.61;85.98
72772;SHT30;60894;42.544;1.516;2024-01-15T20:34:02;4.54;86.11
72772;SHT30;60894;42.544;1.516;2024-01-15T20:36:29;4.56;85.81
72772;SHT30;60894;42.544;1.516;2024-01-15T20:38:58;4.57;86.29
72772;SHT30;60894;42.544;1.516;2024-01-15T20:41:25;4.63;85.63
72772;SHT30;60894;42.544;1.516;2024-01-15T20:43:52;4.54;85.05
72772;SHT30;60894;42.544;1.516;2024-01-15T20:46:20;4.53;85.76
72772;SHT30;60894;42.544;1.516;2024-01-15T20:48:47;4.46;86.72
72772;SHT30;60894;42.544;1.516;2024-01-15T20:51:15;4.39;86.26
72772;SHT30;60894;42.544;1.516;2024-01-15T20:53:43;4.37;86.57
72772;SHT30;60894;42.544;1.516;2024-01-15T20:56:12;4.49;85.75
72772;SHT30;60894;42.544;1.516;2024-01-15T20:58:39;4.46;85.33
72772;SHT30;60894;42.544;1.516;2024-01-15T21:01:06;4.49;85.94
72772;SHT30;60894;42.544;1.516;2024-01-15T21:03:34;4.24;86.68
72772;SHT30;60894;42.544;1.516;2024-01-15T21:06:01;4.07;86.79
72772;SHT30;60894;42.544;1.516;2024-01-15T21:08:29;4.15;87.13
72772;SHT30;60894;42.544;1.516;2024-01-15T21:10:56;4.17;87.65
72772;SHT30;60894;42.544;1.516;2024-01-15T21:13:25;4.16;87.41
72772;SHT30;60894;42.544;1.516;2024-01-15T21:15:52;4.29;86.81
72772;SHT30;60894;42.544;1.516;2024-01-15T21:18:19;4.23;86.58
72772;SHT30;60894;42.544;1.516;2024-01-15T21:20:46;4.24;86.63
72772;SHT30;60894;42.544;1.516;2024-01-15T21:23:13;4.17;86.44
72772;SHT30;60894;42.544;1.516;2024-01-15T21:25:40;4.37;85.57
72772;SHT30;60894;42.544;1.516;2024-01-15T21:28:08;4.50;85.25
72772;SHT30;60894;42.544;1.516;2024-01-15T21:30:36;4.60;83.93
72772;SHT30;60894;42.544;1.516;2024-01-15T21:33:04;4.42;84.71
72772;SHT30;60894;42.544;1.516;2024-01-15T21:35:31;4.15;86.09
72772;SHT30;60894;42.544;1.516;2024-01-15T21:37:58;4.10;86.70
72772;SHT30;60894;42.544;1.516;2024-01-15T21:40:25;4.01;86.63
72772;SHT30;60894;42.544;1.516;2024-01-15T21:42:52;3.92;87.13
72772;SHT30;60894;42.544;1.516;2024-01-15T21:45:20;3.93;87.31
72772;SHT30;60894;42.544;1.516;2024-01-15T21:47:48;4.01;87.18
72772;SHT30;60894;42.544;1.516;2024-01-15T21:50:15;3.96;87.32
72772;SHT30;60894;42.544;1.516;2024-01-15T21:52:43;4.06;87.32
72772;SHT30;60894;42.544;1.516;2024-01-15T21:55:10;4.19;87.11
72772;SHT30;60894;42.544;1.516;2024-01-15T21:57:37;4.20;86.69
72772;SHT30;60894;42.544;1.516;2024-01-15T22:00:06;4.16;86.39
72772;SHT30;60894;42.544;1.516;2024-01-15T22:02:36;4.02;86.83
72772;SHT30;60894;42.544;1.516;2024-01-15T22:05:08;4.10;87.06
72772;SHT30;60894;42.544;1.516;2024-01-15T22:07:36;4.26;85.83
72772;SHT30;60894;42.544;1.516;2024-01-15T22:10:04;4.03;86.47
72772;SHT30;60894;42.544;1.516;2024-01-15T22:12:33;4.02;86.66
72772;SHT30;60894;42.544;1.516;2024-01-15T22:15:00;3.85;87.01
72772;SHT30;60894;42.544;1.516;2024-01-15T22:17:27;3.89;87.44
72772;SHT30;60894;42.544;1.516;2024-01-15T22:19:54;3.86;87.53
72772;SHT30;60894;42.544;1.516;2024-01-15T22:22:21;3.92;87.03
72772;SHT30;60894;42.544;1.516;2024-01-15T22:24:49;3.89;87.07
72772;SHT30;60894;42.544;1.516;2024-01-15T22:27:16;3.84;86.86
72772;SHT30;60894;42.544;1.516;2024-01-15T22:29:43;3.79;87.13
72772;SHT30;60894;42.544;1.516;2024-01-15T22:32:12;3.77;87.02
72772;SHT30;60894;42.544;1.516;2024-01-15T22:34:39;3.86;86.62
72772;SHT30;60894;42.544;1.516;2024-01-15T22:37:06;3.78;86.76
72772;SHT30;60894;42.544;1.516;2024-01-15T22:39:35;3.70;86.95
72772;SHT30;60894;42.544;1.516;2024-01-15T22:42:02;3.91;86.14
72772;SHT30;60894;42.544;1.516;2024-01-15T22:44:29;3.82;86.13
72772;SHT30;60894;42.544;1.516;2024-01-15T22:46:56;3.78;86.26
72772;SHT30;60894;42.544;1.516;2024-01-15T22:49:23;3.67;85.92
72772;SHT30;60894;42.544;1.516;2024-01-15T22:51:50;3.55;86.59
72772;SHT30;60894;42.544;1.516;2024-01-15T22:54:18;3.60;86.80
72772;SHT30;60894;42.544;1.516;2024-01-15T22:56:46;3.44;87.07
72772;SHT30;60894;42.544;1.516;2024-01-15T22:59:13;3.82;84.97
72772;SHT30;60894;42.544;1.516;2024-01-15T23:01:44;3.61;86.47
72772;SHT30;60894;42.544;1.516;2024-01-15T23:04:13;3.53;86.31
72772;SHT30;60894;42.544;1.516;2024-01-15T23:06:40;3.44;87.07
72772;SHT30;60894;42.544;1.516;2024-01-15T23:09:07;3.35;87.24
72772;SHT30;60894;42.544;1.516;2024-01-15T23:11:35;3.40;86.80
72772;SHT30;60894;42.544;1.516;2024-01-15T23:14:03;3.48;86.00
72772;SHT30;60894;42.544;1.516;2024-01-15T23:16:30;3.41;87.38
72772;SHT30;60894;42.544;1.516;2024-01-15T23:18:58;3.38;86.98
72772;SHT30;60894;42.544;1.516;2024-01-15T23:21:25;3.40;86.96
72772;SHT30;60894;42.544;1.516;2024-01-15T23:23:52;3.37;86.92
72772;SHT30;60894;42.544;1.516;2024-01-15T23:26:19;3.26;87.78
72772;SHT30;60894;42.544;1.516;2024-01-15T23:28:47;3.34;87.19
72772;SHT30;60894;42.544;1.516;2024-01-15T23:31:15;3.27;86.44
72772;SHT30;60894;42.544;1.516;2024-01-15T23:33:42;3.21;86.29
72772;SHT30;60894;42.544;1.516;2024-01-15T23:36:10;3.09;87.33
72772;SHT30;60894;42.544;1.516;2024-01-15T23:38:37;3.06;87.01
72772;SHT30;60894;42.544;1.516;2024-01-15T23:41:05;3.10;87.22
72772;SHT30;60894;42.544;1.516;2024-01-15T23:43:32;3.27;86.78
72772;SHT30;60894;42.544;1.516;2024-01-15T23:46:01;3.21;86.91
72772;SHT30;60894;42.544;1.516;2024-01-15T23:48:29;3.10;87.75
72772;SHT30;60894;42.544;1.516;2024-01-15T23:50:56;3.10;87.14
72772;SHT30;60894;42.544;1.516;2024-01-15T23:53:23;3.04;87.85
72772;SHT30;60894;42.544;1.516;2024-01-15T23:55:50;3.02;87.96
72772;SHT30;60894;42.544;1.516;2024-01-15T23:58:17;2.99;87.60
